aviador You're here:

GCFV Decoded Metar

FUERTEVENTURA in SPAIN
Report Time2018-06-24 20:00:00
UTC Time2018-06-24 20:33:00
Flight Rules vfr VFR
Wind050° at 11 kt
W.Decomp.*RWY 01: 7.8 kt HW 7.8 kt RCW
W.Rank050° ranks 2
Current wind is below 050° avg. (12.5)
Visibility9999 m
Phenomena:N/A
Clouds:Few 028 Hf
Expected CloudBase > 1,600 ft AGL from Temp-Dew spread
CeilingNone
Temp22°C (ISA +7)
Dew Point18°C (78% RH)
AAT20.8°C
QNH1017 hPa
Density Alt1,047 ft
Elevation75 ft
Report Wrong Elevation
Raw Report
GCFV 242000Z 05011KT 9999 FEW028 22/18 Q1017=

Extra information for GCFV:More info

Metar Taf Metar & Taf Last 4 Metars F.Rules Stats Wind Profile Meteogram Temp Stats Airport Information Weather charts Add Link Nearby VenuesMetar ALERT Operation Metar Decoded Social comments